Time;durP1;ratioP1;P1;durP2;ratioP2;P2;SDS_P1;SDS_P2;PMS_P1;PMS_P2;Temp;Humidity;BMP_temperature;BMP_pressure;BME280_temperature;BME280_humidity;BME280_pressure;Samples;Min_cycle;Max_cycle;Signal;HPM_P1;HPM_P2
2024/01/30 00:01:15;;;;;;;12.20;6.80;;;;;;;;;;4980974;28;20017;-90
2024/01/30 00:03:41;;;;;;;11.43;7.10;;;;;;;;;;4994464;28;20030;-91
2024/01/30 00:06:06;;;;;;;12.50;7.77;;;;;;;;;;4981421;28;20026;-91
2024/01/30 00:08:31;;;;;;;13.02;7.00;;;;;;;;;;4976324;28;20054;-91
2024/01/30 00:10:56;;;;;;;11.03;7.07;;;;;;;;;;4974802;28;20025;-92
2024/01/30 00:13:22;;;;;;;10.57;6.83;;;;;;;;;;4975081;28;20491;-90
2024/01/30 00:15:48;;;;;;;15.13;7.60;;;;;;;;;;4976496;28;20022;-91
2024/01/30 00:18:13;;;;;;;11.93;6.60;;;;;;;;;;4975651;28;20057;-90
2024/01/30 00:20:38;;;;;;;11.27;7.20;;;;;;;;;;4974939;28;20371;-91
2024/01/30 00:23:04;;;;;;;11.03;6.97;;;;;;;;;;4975442;28;20070;-91
2024/01/30 00:25:29;;;;;;;11.90;7.27;;;;;;;;;;4952673;28;20015;-91
2024/01/30 00:27:54;;;;;;;11.70;6.43;;;;;;;;;;4975651;28;20142;-91
2024/01/30 00:30:20;;;;;;;11.20;7.27;;;;;;;;;;4974045;28;20289;-90
2024/01/30 00:32:45;;;;;;;11.60;6.87;;;;;;;;;;4975372;28;20023;-90
2024/01/30 00:35:11;;;;;;;10.83;6.83;;;;;;;;;;4974440;28;20019;-91
2024/01/30 00:37:36;;;;;;;9.30;7.00;;;;;;;;;;4975817;28;20019;-91
2024/01/30 00:40:01;;;;;;;12.20;7.13;;;;;;;;;;4974475;28;20023;-91
2024/01/30 00:42:26;;;;;;;11.35;6.75;;;;;;;;;;4975584;28;20102;-90
2024/01/30 00:44:52;;;;;;;12.57;6.50;;;;;;;;;;4965507;28;20025;-91
2024/01/30 00:47:17;;;;;;;9.77;6.57;;;;;;;;;;4976912;28;20023;-91
2024/01/30 00:49:42;;;;;;;16.80;7.60;;;;;;;;;;4974444;28;20027;-91
2024/01/30 00:52:07;;;;;;;11.07;7.07;;;;;;;;;;4971792;28;20506;-90
2024/01/30 00:54:33;;;;;;;11.23;6.87;;;;;;;;;;4973731;28;20543;-92
2024/01/30 00:56:58;;;;;;;17.10;6.87;;;;;;;;;;4972873;28;20030;-90
2024/01/30 00:59:23;;;;;;;9.93;6.67;;;;;;;;;;4973860;28;20122;-91
2024/01/30 01:01:48;;;;;;;8.97;6.53;;;;;;;;;;4971854;28;20043;-91
2024/01/30 01:04:13;;;;;;;8.33;6.57;;;;;;;;;;4973205;28;20045;-91
2024/01/30 01:06:39;;;;;;;10.77;6.93;;;;;;;;;;4972863;28;20112;-91
2024/01/30 01:09:04;;;;;;;8.50;6.67;;;;;;;;;;4972878;28;20110;-91
2024/01/30 01:11:29;;;;;;;10.93;6.50;;;;;;;;;;4972208;28;20065;-91
2024/01/30 01:13:54;;;;;;;9.47;6.33;;;;;;;;;;4972131;28;20423;-91
2024/01/30 01:16:20;;;;;;;11.57;7.17;;;;;;;;;;4982006;28;20041;-91
2024/01/30 01:18:45;;;;;;;13.70;6.65;;;;;;;;;;4999720;28;20022;-90
2024/01/30 01:21:10;;;;;;;10.33;6.67;;;;;;;;;;4971919;28;20435;-90
2024/01/30 01:23:35;;;;;;;11.43;7.70;;;;;;;;;;4988156;28;20042;-91
2024/01/30 01:26:01;;;;;;;9.83;6.50;;;;;;;;;;4979808;28;20125;-90
2024/01/30 01:28:27;;;;;;;10.23;6.57;;;;;;;;;;4972544;28;20101;-92
2024/01/30 01:30:52;;;;;;;10.07;6.63;;;;;;;;;;4970859;28;20390;-92
2024/01/30 01:33:17;;;;;;;11.17;6.33;;;;;;;;;;4971550;28;20030;-92
2024/01/30 01:35:42;;;;;;;10.87;6.90;;;;;;;;;;4972566;28;20019;-91
2024/01/30 01:38:08;;;;;;;13.23;7.20;;;;;;;;;;4972496;28;20034;-92
2024/01/30 01:40:33;;;;;;;10.33;6.77;;;;;;;;;;4970803;28;20278;-91
2024/01/30 01:42:58;;;;;;;13.60;6.63;;;;;;;;;;4972298;28;20038;-92
2024/01/30 01:45:23;;;;;;;11.87;6.57;;;;;;;;;;4972540;28;20486;-92
2024/01/30 01:47:51;;;;;;;13.23;7.20;;;;;;;;;;4973928;28;20058;-92
2024/01/30 01:50:18;;;;;;;13.65;7.22;;;;;;;;;;4971192;28;20031;-92
2024/01/30 01:52:43;;;;;;;15.33;7.23;;;;;;;;;;4971959;28;20015;-92
2024/01/30 01:55:09;;;;;;;12.20;7.20;;;;;;;;;;4976165;28;20246;-94
2024/01/30 01:57:34;;;;;;;12.00;7.17;;;;;;;;;;4979775;28;20019;-94
2024/01/30 02:00:00;;;;;;;16.87;7.63;;;;;;;;;;4985609;28;20026;-94
2024/01/30 02:02:26;;;;;;;11.48;6.65;;;;;;;;;;4969165;29;20023;-95
2024/01/30 02:04:51;;;;;;;12.40;6.53;;;;;;;;;;4980645;28;20091;-95
2024/01/30 02:07:17;;;;;;;13.50;6.73;;;;;;;;;;4983824;28;20023;-93
2024/01/30 02:09:42;;;;;;;15.23;6.73;;;;;;;;;;4987141;28;20015;-95
2024/01/30 02:12:07;;;;;;;13.47;6.87;;;;;;;;;;4983332;28;20050;-94
2024/01/30 02:14:32;;;;;;;10.13;6.53;;;;;;;;;;4984828;28;20039;-93
2024/01/30 02:16:58;;;;;;;11.17;6.13;;;;;;;;;;4985074;28;20023;-94
2024/01/30 02:19:24;;;;;;;9.07;6.70;;;;;;;;;;4984647;28;20014;-94
2024/01/30 02:21:49;;;;;;;10.15;6.10;;;;;;;;;;4984012;28;20031;-93
2024/01/30 02:24:15;;;;;;;9.23;6.10;;;;;;;;;;4983169;28;20110;-95
2024/01/30 02:26:40;;;;;;;9.30;6.60;;;;;;;;;;4984340;28;20058;-94
2024/01/30 02:29:05;;;;;;;9.50;6.70;;;;;;;;;;4991045;28;20019;-95
2024/01/30 02:31:32;;;;;;;9.53;6.23;;;;;;;;;;4985784;28;20293;-95
2024/01/30 02:33:57;;;;;;;10.17;6.30;;;;;;;;;;4967323;28;20019;-94
2024/01/30 02:36:23;;;;;;;9.17;5.87;;;;;;;;;;4985878;28;20033;-94
2024/01/30 02:38:48;;;;;;;9.17;6.30;;;;;;;;;;4997695;28;20022;-95
2024/01/30 02:41:14;;;;;;;10.23;6.20;;;;;;;;;;4970955;28;20105;-94
2024/01/30 02:43:39;;;;;;;10.93;6.35;;;;;;;;;;4968368;28;20047;-95
2024/01/30 02:46:05;;;;;;;9.67;6.63;;;;;;;;;;4975447;28;20043;-95
2024/01/30 02:48:30;;;;;;;11.40;6.30;;;;;;;;;;4959146;29;20050;-95
2024/01/30 02:50:56;;;;;;;9.17;6.63;;;;;;;;;;4974080;28;20641;-95
2024/01/30 02:53:21;;;;;;;15.18;6.60;;;;;;;;;;4959300;28;20427;-95
2024/01/30 02:55:47;;;;;;;11.00;6.67;;;;;;;;;;4980902;28;20054;-96
2024/01/30 02:58:12;;;;;;;9.60;6.17;;;;;;;;;;4978545;28;20022;-95
2024/01/30 03:00:38;;;;;;;10.20;6.27;;;;;;;;;;4974781;28;20019;-96
2024/01/30 03:03:03;;;;;;;9.70;5.95;;;;;;;;;;4957949;28;20118;-95
2024/01/30 03:05:29;;;;;;;10.40;6.67;;;;;;;;;;4975113;28;20402;-96
2024/01/30 03:07:54;;;;;;;10.53;6.10;;;;;;;;;;4975464;28;20034;-95
2024/01/30 03:10:19;;;;;;;8.00;6.20;;;;;;;;;;4975430;28;20018;-96
2024/01/30 03:12:44;;;;;;;8.90;6.03;;;;;;;;;;4975795;28;20497;-95
2024/01/30 03:15:10;;;;;;;11.57;6.30;;;;;;;;;;4975529;28;20023;-96
2024/01/30 03:17:36;;;;;;;9.47;6.47;;;;;;;;;;4975898;28;20485;-96
2024/01/30 03:20:02;;;;;;;13.10;6.38;;;;;;;;;;4974197;28;20023;-95
2024/01/30 03:22:27;;;;;;;10.27;6.68;;;;;;;;;;4974510;28;20030;-95
2024/01/30 03:24:52;;;;;;;10.37;6.23;;;;;;;;;;4974564;28;20475;-96
2024/01/30 03:27:17;;;;;;;9.07;6.00;;;;;;;;;;4976674;28;20026;-95
2024/01/30 03:29:43;;;;;;;9.20;6.00;;;;;;;;;;4975168;28;20023;-95
2024/01/30 03:32:14;;;;;;;11.57;6.67;;;;;;;;;;4976826;28;20023;-96
2024/01/30 03:34:48;;;;;;;11.48;6.10;;;;;;;;;;4977932;28;20015;-95
2024/01/30 03:37:13;;;;;;;9.63;6.23;;;;;;;;;;4959697;28;20077;-96
2024/01/30 03:39:38;;;;;;;11.40;6.30;;;;;;;;;;4988305;28;20074;-96
2024/01/30 03:42:03;;;;;;;10.60;6.10;;;;;;;;;;4989233;28;20182;-95
2024/01/30 03:44:29;;;;;;;8.82;5.70;;;;;;;;;;4974860;28;20034;-95
2024/01/30 03:46:55;;;;;;;11.53;5.80;;;;;;;;;;4973929;28;20073;-95
2024/01/30 03:49:20;;;;;;;11.07;6.67;;;;;;;;;;4975622;28;20019;-96
2024/01/30 03:51:47;;;;;;;9.37;5.73;;;;;;;;;;4975283;28;20065;-95
2024/01/30 03:54:12;;;;;;;9.68;6.00;;;;;;;;;;4968307;28;20018;-96
2024/01/30 03:56:37;;;;;;;8.43;5.73;;;;;;;;;;4974953;28;20486;-95
2024/01/30 03:59:04;;;;;;;12.13;5.73;;;;;;;;;;4984511;28;20016;-96
2024/01/30 04:01:30;;;;;;;8.15;5.50;;;;;;;;;;4980291;28;20022;-95
2024/01/30 04:03:56;;;;;;;9.70;5.72;;;;;;;;;;4978605;28;20094;-94
2024/01/30 04:06:21;;;;;;;8.10;4.83;;;;;;;;;;4996340;28;20019;-96
2024/01/30 04:08:52;;;;;;;8.97;5.00;;;;;;;;;;4990654;28;20474;-95
2024/01/30 04:11:20;;;;;;;9.10;5.47;;;;;;;;;;4974488;29;20399;-96
2024/01/30 04:13:48;;;;;;;8.80;5.43;;;;;;;;;;4969108;28;20019;-95
2024/01/30 04:16:22;;;;;;;10.13;5.50;;;;;;;;;;4971447;28;20037;-96
2024/01/30 04:18:51;;;;;;;9.75;5.53;;;;;;;;;;4970926;28;20098;-94
2024/01/30 04:21:16;;;;;;;8.73;5.43;;;;;;;;;;4978257;28;20022;-95
2024/01/30 04:26:36;;;;;;;7.40;4.67;;;;;;;;;;5299994;23;20073;-96
2024/01/30 04:29:02;;;;;;;7.53;5.30;;;;;;;;;;4951751;28;20279;-95
2024/01/30 04:31:27;;;;;;;9.30;5.20;;;;;;;;;;4984995;28;20038;-95
2024/01/30 04:33:52;;;;;;;9.93;5.13;;;;;;;;;;4986759;28;20026;-95
2024/01/30 04:36:18;;;;;;;7.53;4.90;;;;;;;;;;4969950;28;20022;-95
2024/01/30 04:38:44;;;;;;;8.83;5.30;;;;;;;;;;4987163;28;20023;-94
2024/01/30 04:41:17;;;;;;;9.80;5.00;;;;;;;;;;4970173;28;20050;-95
2024/01/30 04:43:43;;;;;;;8.27;5.45;;;;;;;;;;4972736;28;20553;-95
2024/01/30 04:46:16;;;;;;;11.00;5.82;;;;;;;;;;4964656;28;20035;-94
2024/01/30 04:48:54;;;;;;;8.73;5.15;;;;;;;;;;4959963;28;20023;-96
2024/01/30 04:53:58;;;;;;;9.67;5.30;;;;;;;;;;4972879;28;20338;-96
2024/01/30 04:56:23;;;;;;;8.10;4.65;;;;;;;;;;4953548;29;20025;-95
2024/01/30 04:58:51;;;;;;;6.28;5.13;;;;;;;;;;4971168;28;20035;-95
2024/01/30 05:01:16;;;;;;;7.28;4.55;;;;;;;;;;4951032;29;20027;-95
2024/01/30 05:03:50;;;;;;;7.97;4.93;;;;;;;;;;4968903;29;20035;-95
2024/01/30 05:06:37;;;;;;;7.20;5.07;;;;;;;;;;4974185;29;20035;-95
2024/01/30 05:09:04;;;;;;;6.50;4.90;;;;;;;;;;4971382;29;20039;-93
2024/01/30 05:11:29;;;;;;;10.23;4.82;;;;;;;;;;4970334;28;20043;-95
2024/01/30 05:14:00;;;;;;;8.97;4.77;;;;;;;;;;4944697;29;20635;-96
2024/01/30 05:16:27;;;;;;;6.07;4.70;;;;;;;;;;4953366;29;20097;-96
2024/01/30 05:18:53;;;;;;;9.53;4.87;;;;;;;;;;4960371;29;20318;-96
2024/01/30 05:24:25;;;;;;;5.87;4.50;;;;;;;;;;4939747;28;20278;-96
2024/01/30 05:31:53;;;;;;;5.65;4.25;;;;;;;;;;4953429;29;20051;-94
2024/01/30 05:34:37;;;;;;;6.57;4.30;;;;;;;;;;4956422;28;20471;-96
2024/01/30 05:37:05;;;;;;;10.60;4.30;;;;;;;;;;4954429;29;20023;-95
2024/01/30 05:39:33;;;;;;;9.30;4.43;;;;;;;;;;4936248;29;20054;-95
2024/01/30 05:42:04;;;;;;;7.93;4.27;;;;;;;;;;4956418;29;20023;-93
2024/01/30 05:44:29;;;;;;;7.90;4.63;;;;;;;;;;4950545;29;20283;-94
2024/01/30 05:46:54;;;;;;;10.35;4.38;;;;;;;;;;4937804;29;20085;-94
2024/01/30 05:49:20;;;;;;;6.27;4.13;;;;;;;;;;4939070;29;20027;-93
2024/01/30 05:51:45;;;;;;;6.63;4.57;;;;;;;;;;4938017;29;20027;-91
2024/01/30 05:54:10;;;;;;;7.40;4.60;;;;;;;;;;4937038;28;20007;-92
2024/01/30 05:56:35;;;;;;;6.73;4.70;;;;;;;;;;4952764;29;20042;-93
2024/01/30 05:59:00;;;;;;;7.40;4.47;;;;;;;;;;4953472;28;20106;-90
2024/01/30 06:01:26;;;;;;;12.97;6.77;;;;;;;;;;4937072;29;20391;-88
2024/01/30 06:03:51;;;;;;;8.53;5.33;;;;;;;;;;4953003;28;20046;-88
2024/01/30 06:06:16;;;;;;;9.60;5.60;;;;;;;;;;4951977;29;20030;-89
2024/01/30 06:08:41;;;;;;;6.43;4.90;;;;;;;;;;4948481;28;20475;-91
2024/01/30 06:11:09;;;;;;;6.57;4.70;;;;;;;;;;4955394;29;20475;-90
2024/01/30 06:13:36;;;;;;;6.78;4.80;;;;;;;;;;4956699;29;20019;-89
2024/01/30 06:16:02;;;;;;;7.97;4.73;;;;;;;;;;4942081;28;20031;-88
2024/01/30 06:18:29;;;;;;;7.57;5.20;;;;;;;;;;4943949;29;20030;-90
2024/01/30 06:20:54;;;;;;;7.38;5.10;;;;;;;;;;4955284;29;20035;-90
2024/01/30 06:23:19;;;;;;;10.20;5.07;;;;;;;;;;4956371;29;20031;-90
2024/01/30 06:25:44;;;;;;;6.30;4.40;;;;;;;;;;4955783;28;20667;-89
2024/01/30 06:28:10;;;;;;;8.47;5.90;;;;;;;;;;4942998;29;20456;-89
2024/01/30 06:30:35;;;;;;;12.57;6.67;;;;;;;;;;4955388;29;20055;-90
2024/01/30 06:33:00;;;;;;;28.47;14.70;;;;;;;;;;4946797;29;20162;-89
2024/01/30 06:35:25;;;;;;;11.57;7.17;;;;;;;;;;4943574;28;20070;-91
2024/01/30 06:37:52;;;;;;;10.17;5.67;;;;;;;;;;4955720;28;20483;-89
2024/01/30 06:40:17;;;;;;;9.38;5.28;;;;;;;;;;4955959;29;20434;-89
2024/01/30 06:42:42;;;;;;;7.80;5.07;;;;;;;;;;4970731;28;20031;-91
2024/01/30 06:45:08;;;;;;;9.50;5.50;;;;;;;;;;4938254;29;20029;-91
2024/01/30 06:47:34;;;;;;;7.75;4.30;;;;;;;;;;4962623;29;20053;-91
2024/01/30 06:49:59;;;;;;;6.07;4.50;;;;;;;;;;4952562;29;20031;-92
2024/01/30 06:52:25;;;;;;;7.60;4.53;;;;;;;;;;4934714;29;20074;-90
2024/01/30 06:54:50;;;;;;;8.60;5.15;;;;;;;;;;4953950;29;20074;-89
2024/01/30 06:57:15;;;;;;;6.47;5.37;;;;;;;;;;4954963;29;20027;-89
2024/01/30 06:59:43;;;;;;;9.27;5.57;;;;;;;;;;4955259;29;20046;-89
2024/01/30 07:02:08;;;;;;;7.87;4.20;;;;;;;;;;4937165;29;20038;-89
2024/01/30 07:04:34;;;;;;;5.93;4.78;;;;;;;;;;4951389;29;20535;-90
2024/01/30 07:06:59;;;;;;;6.90;4.50;;;;;;;;;;4954445;29;20019;-90
2024/01/30 07:09:24;;;;;;;6.23;4.63;;;;;;;;;;4949072;29;20114;-92
2024/01/30 07:11:49;;;;;;;9.83;5.27;;;;;;;;;;4942466;29;20479;-91
2024/01/30 07:14:14;;;;;;;10.80;5.97;;;;;;;;;;4935380;29;20023;-89
2024/01/30 07:16:40;;;;;;;8.80;5.00;;;;;;;;;;4955655;29;20011;-88
2024/01/30 07:19:05;;;;;;;8.67;4.87;;;;;;;;;;4952671;29;20031;-89
2024/01/30 07:21:30;;;;;;;9.20;5.03;;;;;;;;;;4952890;28;20546;-87
2024/01/30 07:23:55;;;;;;;11.03;4.50;;;;;;;;;;4954535;29;20053;-88
2024/01/30 07:26:20;;;;;;;6.97;4.27;;;;;;;;;;4954793;29;20026;-88
2024/01/30 07:28:46;;;;;;;7.60;4.87;;;;;;;;;;4955370;29;20412;-87
2024/01/30 07:31:11;;;;;;;7.10;4.03;;;;;;;;;;4956627;29;20042;-87
2024/01/30 07:33:39;;;;;;;8.87;4.30;;;;;;;;;;4950942;29;20051;-95
2024/01/30 07:36:04;;;;;;;300.50;236.52;;;;;;;;;;4952359;29;20027;-92
2024/01/30 07:38:41;;;;;;;20.80;13.43;;;;;;;;;;4955213;28;20124;-94
2024/01/30 07:41:07;;;;;;;7.97;5.80;;;;;;;;;;4943082;28;21807;-91
2024/01/30 07:43:35;;;;;;;7.13;4.57;;;;;;;;;;4951548;28;20031;-93
2024/01/30 07:46:02;;;;;;;7.97;5.47;;;;;;;;;;4952760;29;20031;-92
2024/01/30 07:48:28;;;;;;;8.45;4.70;;;;;;;;;;4936272;29;20023;-92
2024/01/30 07:50:53;;;;;;;8.43;4.80;;;;;;;;;;4953681;29;20031;-92
2024/01/30 07:53:18;;;;;;;6.53;4.83;;;;;;;;;;4954069;29;20098;-90
2024/01/30 07:55:46;;;;;;;10.47;4.93;;;;;;;;;;4952470;28;20174;-93
2024/01/30 07:58:11;;;;;;;9.77;5.38;;;;;;;;;;4952572;28;20503;-94
2024/01/30 08:00:37;;;;;;;10.83;5.27;;;;;;;;;;4942044;29;20110;-92
2024/01/30 08:03:02;;;;;;;8.45;4.82;;;;;;;;;;4928568;29;20035;-91
2024/01/30 08:05:27;;;;;;;9.83;5.30;;;;;;;;;;4954568;29;20055;-92
2024/01/30 08:07:53;;;;;;;9.00;5.87;;;;;;;;;;4950240;28;20468;-93
2024/01/30 08:10:27;;;;;;;12.03;5.83;;;;;;;;;;4952084;29;20032;-95
2024/01/30 08:12:52;;;;;;;10.98;5.38;;;;;;;;;;4948237;29;20020;-94
2024/01/30 08:15:17;;;;;;;8.17;5.13;;;;;;;;;;4947215;29;20525;-93
2024/01/30 08:17:58;;;;;;;;;;;;;;;;;;;;;
2024/01/30 08:20:43;;;;;;;11.25;5.55;;;;;;;;;;4932716;29;20405;-93
2024/01/30 08:26:11;;;;;;;11.37;4.93;;;;;;;;;;4959324;29;20039;-94
2024/01/30 08:28:37;;;;;;;9.63;4.70;;;;;;;;;;4954776;29;20275;-95
2024/01/30 08:31:02;;;;;;;7.20;4.97;;;;;;;;;;4963687;29;20039;-94
2024/01/30 08:33:40;;;;;;;9.30;5.20;;;;;;;;;;4972876;28;20099;-95
2024/01/30 08:36:05;;;;;;;7.82;5.05;;;;;;;;;;4961178;28;20015;-95
2024/01/30 08:38:32;;;;;;;8.23;5.27;;;;;;;;;;4975230;28;20015;-95
2024/01/30 08:50:19;;;;;;;7.33;4.57;;;;;;;;;;5007622;28;20036;-96
2024/01/30 08:53:10;;;;;;;10.53;5.17;;;;;;;;;;5483003;22;20406;-96
2024/01/30 09:06:55;;;;;;;10.00;5.37;;;;;;;;;;4989679;28;20082;-94
2024/01/30 09:09:32;;;;;;;9.70;5.57;;;;;;;;;;4979174;28;20082;-96
2024/01/30 09:12:01;;;;;;;9.40;4.87;;;;;;;;;;4990762;28;20417;-96
2024/01/30 09:14:33;;;;;;;10.00;5.00;;;;;;;;;;4979272;28;20062;-93
2024/01/30 09:16:58;;;;;;;11.65;4.82;;;;;;;;;;4978180;28;20113;-87
2024/01/30 09:19:23;;;;;;;9.10;5.07;;;;;;;;;;4998956;22;20494;-93
2024/01/30 09:22:17;;;;;;;9.37;4.93;;;;;;;;;;5009006;28;20010;-95
2024/01/30 09:24:42;;;;;;;14.20;5.50;;;;;;;;;;5007256;28;20015;-92
2024/01/30 09:27:08;;;;;;;11.73;4.87;;;;;;;;;;4977848;28;20026;-91
2024/01/30 09:29:34;;;;;;;10.83;5.00;;;;;;;;;;5002560;28;20038;-93
2024/01/30 09:31:59;;;;;;;14.10;5.32;;;;;;;;;;5004888;28;20037;-93
2024/01/30 09:34:24;;;;;;;9.07;5.07;;;;;;;;;;4992453;28;20650;-92
2024/01/30 09:36:49;;;;;;;7.83;5.20;;;;;;;;;;4992503;28;20057;-93
2024/01/30 09:39:16;;;;;;;9.00;5.23;;;;;;;;;;4992378;28;20097;-92
2024/01/30 09:41:45;;;;;;;11.63;5.32;;;;;;;;;;4994266;28;20030;-93
2024/01/30 09:44:11;;;;;;;8.10;5.15;;;;;;;;;;5009922;28;20046;-93
2024/01/30 09:46:37;;;;;;;9.88;5.05;;;;;;;;;;4995361;28;20104;-93
2024/01/30 09:49:05;;;;;;;9.03;5.33;;;;;;;;;;4995267;28;20530;-93
2024/01/30 09:54:15;;;;;;;11.48;5.20;;;;;;;;;;5002323;23;20093;-93
2024/01/30 09:56:40;;;;;;;9.75;4.55;;;;;;;;;;4978172;28;20026;-94
2024/01/30 09:59:39;;;;;;;8.77;4.83;;;;;;;;;;4995635;28;20080;-93
2024/01/30 10:02:08;;;;;;;10.02;5.32;;;;;;;;;;4993617;28;20054;-93
2024/01/30 10:04:33;;;;;;;10.33;5.00;;;;;;;;;;4976128;28;20505;-94
2024/01/30 10:07:20;;;;;;;11.57;4.90;;;;;;;;;;4977062;28;20098;-93
2024/01/30 10:09:45;;;;;;;6.27;4.73;;;;;;;;;;4978447;28;20293;-93
2024/01/30 10:12:11;;;;;;;9.20;5.20;;;;;;;;;;4994637;28;20394;-93
2024/01/30 10:14:40;;;;;;;13.63;5.23;;;;;;;;;;4996490;28;20105;-94
2024/01/30 10:17:05;;;;;;;13.20;5.38;;;;;;;;;;4995121;28;20046;-93
2024/01/30 10:19:31;;;;;;;10.57;5.20;;;;;;;;;;4996026;28;20026;-94
2024/01/30 10:21:56;;;;;;;9.40;5.20;;;;;;;;;;5002257;28;20033;-93
2024/01/30 10:24:24;;;;;;;13.23;5.27;;;;;;;;;;4993092;28;20017;-96
2024/01/30 10:26:50;;;;;;;9.50;5.50;;;;;;;;;;4995478;28;20142;-92
2024/01/30 10:29:15;;;;;;;10.63;4.93;;;;;;;;;;4994525;28;20517;-94
2024/01/30 10:31:40;;;;;;;16.63;6.23;;;;;;;;;;4993694;28;20034;-92
2024/01/30 10:34:05;;;;;;;10.43;5.17;;;;;;;;;;4993338;28;20027;-94
2024/01/30 10:36:35;;;;;;;13.27;5.27;;;;;;;;;;4994695;28;20428;-93
2024/01/30 10:39:01;;;;;;;10.40;5.10;;;;;;;;;;4996347;28;20030;-94
2024/01/30 10:41:27;;;;;;;11.23;5.25;;;;;;;;;;4994135;28;20684;-93
2024/01/30 10:44:02;;;;;;;10.87;5.63;;;;;;;;;;5000627;28;20018;-92
2024/01/30 10:46:29;;;;;;;11.85;6.18;;;;;;;;;;5006072;28;20026;-93
2024/01/30 10:48:58;;;;;;;11.40;5.63;;;;;;;;;;4995556;28;20019;-93
2024/01/30 10:51:24;;;;;;;8.65;4.97;;;;;;;;;;5010776;28;20097;-94
2024/01/30 10:53:50;;;;;;;12.23;5.70;;;;;;;;;;5000211;28;20509;-93
2024/01/30 10:56:16;;;;;;;13.52;5.32;;;;;;;;;;4997682;28;20026;-94
2024/01/30 10:58:41;;;;;;;9.97;5.43;;;;;;;;;;5009019;28;20040;-94
2024/01/30 11:01:07;;;;;;;11.47;6.00;;;;;;;;;;4973243;28;20118;-89
2024/01/30 11:03:34;;;;;;;10.77;5.97;;;;;;;;;;4997585;28;20034;-96
2024/01/30 11:06:00;;;;;;;11.45;6.03;;;;;;;;;;5003866;28;20080;-95
2024/01/30 11:08:28;;;;;;;13.40;6.37;;;;;;;;;;4995204;28;20070;-94
2024/01/30 11:11:00;;;;;;;9.77;5.47;;;;;;;;;;4998705;28;20328;-94
2024/01/30 11:13:31;;;;;;;12.13;5.95;;;;;;;;;;4995072;28;20098;-95
2024/01/30 11:16:11;;;;;;;16.90;6.50;;;;;;;;;;5009445;28;20040;-95
2024/01/30 11:19:02;;;;;;;;;;;;;;;;;;;;;
2024/01/30 11:26:34;;;;;;;16.50;6.53;;;;;;;;;;5005504;28;20313;-96
2024/01/30 11:29:03;;;;;;;15.77;6.68;;;;;;;;;;4980617;28;20022;-95
2024/01/30 11:34:03;;;;;;;13.30;6.15;;;;;;;;;;5037334;22;20054;-95
2024/01/30 11:36:32;;;;;;;13.20;6.55;;;;;;;;;;5011147;28;20121;-95
2024/01/30 11:39:05;;;;;;;14.55;6.05;;;;;;;;;;5376215;23;20030;-96
2024/01/30 12:17:56;;;;;;;6.97;4.15;;;;;;;;;;5037979;22;20054;-96
2024/01/30 12:22:59;;;;;;;9.40;4.43;;;;;;;;;;5443000;23;20069;-96
2024/01/30 12:33:29;;;;;;;7.90;2.80;;;;;;;;;;4979469;28;20398;-96
2024/01/30 12:36:16;;;;;;;8.30;2.40;;;;;;;;;;4971909;28;20019;-96
2024/01/30 12:38:42;;;;;;;5.70;1.90;;;;;;;;;;4986273;28;20109;-96
2024/01/30 12:41:08;;;;;;;4.40;1.80;;;;;;;;;;4979012;28;20023;-95
2024/01/30 12:43:43;;;;;;;3.03;1.55;;;;;;;;;;4966382;29;20090;-96
2024/01/30 12:46:08;;;;;;;5.77;1.70;;;;;;;;;;4967864;29;20023;-96
2024/01/30 12:48:33;;;;;;;4.10;1.20;;;;;;;;;;4965486;28;20434;-96
2024/01/30 12:50:59;;;;;;;6.33;1.10;;;;;;;;;;4957939;28;20069;-95
2024/01/30 12:53:24;;;;;;;7.60;1.43;;;;;;;;;;4967414;28;20531;-96
2024/01/30 12:55:54;;;;;;;2.47;1.10;;;;;;;;;;4990128;28;20007;-96
2024/01/30 12:58:31;;;;;;;2.00;1.02;;;;;;;;;;4992071;28;20023;-96
2024/01/30 13:00:57;;;;;;;3.78;1.00;;;;;;;;;;4990815;28;20015;-96
2024/01/30 13:03:26;;;;;;;2.90;1.13;;;;;;;;;;5097243;23;20043;-96
2024/01/30 13:05:52;;;;;;;4.97;1.35;;;;;;;;;;4988320;28;20046;-96
2024/01/30 13:08:17;;;;;;;3.40;1.20;;;;;;;;;;4986391;28;20014;-95
2024/01/30 13:10:43;;;;;;;3.23;1.30;;;;;;;;;;4970947;28;20023;-96
2024/01/30 13:13:09;;;;;;;2.28;1.20;;;;;;;;;;4989630;28;20107;-96
2024/01/30 13:15:34;;;;;;;3.37;1.20;;;;;;;;;;4993028;28;20034;-96
2024/01/30 13:18:02;;;;;;;2.38;1.20;;;;;;;;;;4991783;28;20006;-96
2024/01/30 13:20:37;;;;;;;2.67;0.90;;;;;;;;;;4976788;28;20030;-96
2024/01/30 13:23:21;;;;;;;2.33;0.90;;;;;;;;;;4993681;28;20294;-95
2024/01/30 13:28:46;;;;;;;3.60;0.90;;;;;;;;;;5123363;23;20037;-94
2024/01/30 13:31:19;;;;;;;2.72;0.90;;;;;;;;;;5007739;28;20049;-93
2024/01/30 15:09:38;;;;;;;6.68;3.65;;;;;;;;;;6030967;23;20013;-95
2024/01/30 15:12:20;;;;;;;11.55;3.78;;;;;;;;;;5267364;23;20049;-95
2024/01/30 15:14:50;;;;;;;9.25;3.55;;;;;;;;;;5018448;28;20034;-96
2024/01/30 15:17:16;;;;;;;9.30;3.50;;;;;;;;;;5015088;28;20038;-96
2024/01/30 15:33:51;;;;;;;12.83;3.40;;;;;;;;;;4995615;28;20074;-96
2024/01/30 15:36:29;;;;;;;3.53;2.88;;;;;;;;;;5302555;23;20120;-96
2024/01/30 15:39:15;;;;;;;11.35;3.00;;;;;;;;;;5014196;28;20143;-96
2024/01/30 15:41:50;;;;;;;;;;;;;;;;;;;;;
2024/01/30 15:44:16;;;;;;;7.28;3.00;;;;;;;;;;5021340;28;20065;-95
2024/01/30 15:46:48;;;;;;;6.13;2.50;;;;;;;;;;5036157;28;20009;-94
2024/01/30 15:49:22;;;;;;;4.82;2.80;;;;;;;;;;5030807;28;20058;-95
2024/01/30 15:51:47;;;;;;;6.80;2.20;;;;;;;;;;5035237;28;20026;-95
2024/01/30 15:54:12;;;;;;;3.43;2.40;;;;;;;;;;5018316;28;20049;-95
2024/01/30 15:56:59;;;;;;;6.80;2.27;;;;;;;;;;5037007;28;20297;-95
2024/01/30 15:59:34;;;;;;;4.60;2.50;;;;;;;;;;5032049;28;20052;-94
2024/01/30 16:02:01;;;;;;;4.40;2.70;;;;;;;;;;5035283;28;20289;-95
2024/01/30 16:04:26;;;;;;;4.90;2.40;;;;;;;;;;5035883;28;20017;-96
2024/01/30 16:06:52;;;;;;;5.67;3.07;;;;;;;;;;5035870;28;20018;-95
2024/01/30 16:09:23;;;;;;;6.53;2.80;;;;;;;;;;5011330;28;20025;-96
2024/01/30 16:20:11;;;;;;;7.30;3.40;;;;;;;;;;5769215;23;20039;-96
2024/01/30 16:22:52;;;;;;;8.53;3.80;;;;;;;;;;5014243;28;20038;-96
2024/01/30 16:30:27;;;;;;;6.60;4.03;;;;;;;;;;5130901;22;20062;-95
2024/01/30 16:32:53;;;;;;;7.47;4.00;;;;;;;;;;4947018;29;20032;-93
2024/01/30 16:35:25;;;;;;;9.68;4.53;;;;;;;;;;4963964;29;20146;-96
2024/01/30 16:37:52;;;;;;;8.57;4.37;;;;;;;;;;4942301;29;20055;-95
2024/01/30 16:40:17;;;;;;;5.57;4.23;;;;;;;;;;4960473;29;20398;-95
2024/01/30 16:42:42;;;;;;;9.70;4.60;;;;;;;;;;4944940;29;20031;-95
2024/01/30 16:45:09;;;;;;;9.63;4.72;;;;;;;;;;4944254;29;20019;-96
2024/01/30 16:50:37;;;;;;;7.53;4.97;;;;;;;;;;4960686;29;20046;-94
2024/01/30 16:53:02;;;;;;;9.87;5.47;;;;;;;;;;4956935;28;20023;-96
2024/01/30 16:55:40;;;;;;;7.70;5.73;;;;;;;;;;4960107;29;20037;-96
2024/01/30 16:58:05;;;;;;;7.43;6.00;;;;;;;;;;4935390;29;20176;-87
2024/01/30 17:00:30;;;;;;;13.03;6.43;;;;;;;;;;4952659;29;20449;-86
2024/01/30 17:02:58;;;;;;;11.23;6.23;;;;;;;;;;4952277;29;20034;-87
2024/01/30 17:05:23;;;;;;;10.27;6.72;;;;;;;;;;4953068;29;20015;-88
2024/01/30 17:07:49;;;;;;;10.57;6.87;;;;;;;;;;4948236;28;20506;-88
2024/01/30 17:10:17;;;;;;;9.17;6.47;;;;;;;;;;4947491;29;20024;-88
2024/01/30 17:12:43;;;;;;;10.77;7.10;;;;;;;;;;4942618;29;20027;-90
2024/01/30 17:15:08;;;;;;;9.27;7.13;;;;;;;;;;4956232;28;20050;-90
2024/01/30 17:17:33;;;;;;;13.07;6.90;;;;;;;;;;4940811;29;20401;-88
2024/01/30 17:19:59;;;;;;;12.03;7.30;;;;;;;;;;4952456;29;20460;-89
2024/01/30 17:22:24;;;;;;;11.30;7.17;;;;;;;;;;4953002;29;20063;-89
2024/01/30 17:24:49;;;;;;;13.37;7.37;;;;;;;;;;4959943;28;20027;-93
2024/01/30 17:27:14;;;;;;;16.60;7.90;;;;;;;;;;4948561;29;20027;-96
2024/01/30 17:29:40;;;;;;;12.33;7.23;;;;;;;;;;4958397;29;20055;-94
2024/01/30 17:32:05;;;;;;;10.10;6.80;;;;;;;;;;4962635;29;20028;-96
2024/01/30 17:34:30;;;;;;;11.43;6.63;;;;;;;;;;4944084;29;20099;-93
2024/01/30 17:36:55;;;;;;;9.03;6.70;;;;;;;;;;4938029;29;20490;-92
2024/01/30 17:39:21;;;;;;;10.45;6.85;;;;;;;;;;4954062;29;20051;-93
2024/01/30 17:41:46;;;;;;;8.67;6.93;;;;;;;;;;4918735;29;20019;-94
2024/01/30 17:44:13;;;;;;;9.40;6.67;;;;;;;;;;4948244;29;20093;-94
2024/01/30 17:46:38;;;;;;;12.57;7.70;;;;;;;;;;4952809;29;20378;-91
2024/01/30 17:49:04;;;;;;;10.00;6.83;;;;;;;;;;4939201;29;20270;-91
2024/01/30 17:51:29;;;;;;;11.50;7.07;;;;;;;;;;4936681;29;20015;-91
2024/01/30 17:53:54;;;;;;;9.73;6.47;;;;;;;;;;4936530;29;20027;-92
2024/01/30 17:56:21;;;;;;;12.07;6.87;;;;;;;;;;4949019;29;20042;-91
2024/01/30 17:58:46;;;;;;;9.32;6.55;;;;;;;;;;4948741;29;20154;-93
2024/01/30 18:01:11;;;;;;;8.83;6.77;;;;;;;;;;4951382;28;20051;-93
2024/01/30 18:03:36;;;;;;;9.03;6.50;;;;;;;;;;4937099;29;20031;-93
2024/01/30 18:06:02;;;;;;;11.07;7.40;;;;;;;;;;4953562;28;20289;-91
2024/01/30 18:08:27;;;;;;;14.20;7.70;;;;;;;;;;4957933;29;20094;-93
2024/01/30 18:10:52;;;;;;;10.67;6.67;;;;;;;;;;4956552;28;20027;-91
2024/01/30 18:13:17;;;;;;;11.33;7.33;;;;;;;;;;4957300;29;20019;-95
2024/01/30 18:15:43;;;;;;;11.07;7.20;;;;;;;;;;4952891;29;20043;-95
2024/01/30 18:18:11;;;;;;;14.33;7.37;;;;;;;;;;4960054;29;20026;-92
2024/01/30 18:20:36;;;;;;;16.92;8.38;;;;;;;;;;4962168;29;20502;-92
2024/01/30 18:23:01;;;;;;;22.83;9.97;;;;;;;;;;4962208;29;20134;-93
2024/01/30 18:25:27;;;;;;;9.60;7.13;;;;;;;;;;4976953;29;20015;-95